KBFM/BFM METAR and TAF weather

Enter ICAO airport designator
Station Type Date Time Source
KBFM METAR 2018/12/13 14:53 UTC NOAA

KBFM 131453Z 11005KT 10SM FEW008 SCT028 BKN036 14/14 A3008 RMK AO2 SLP186 T01440139 53014


Station Type Date Time Source
KBFM Decoded METAR 2018/12/13 14:53 UTC NOAA

MOBILE DOWNTOWN AIRPORT, AL, United States (KBFM) 30-38N 88-04W 20M
Dec 13, 2018 - 09:53 AM EST / 2018.12.13 1453 UTC
Wind: from the ESE (110 degrees) at 6 MPH (5 KT):0
Visibility: 10 mile(s):0
Sky conditions: mostly cloudy
Temperature: 57.9 F (14.4 C)
Dew Point: 57.0 F (13.9 C)
Relative Humidity: 96%
Pressure (altimeter): 30.08 in. Hg (1018 hPa)
Pressure tendency: 0.04 inches (1.4 hPa) higher than three hours ago
ob: KBFM 131453Z 11005KT 10SM FEW008 SCT028 BKN036 14/14 A3008 RMK AO2 SLP186 T01440139 53014
cycle: 15

Station Type Date Time Source
KBFM TAF 2018/12/13 12:42 UTC NOAA

TAF KBFM 131140Z 1312/1412 11012KT P6SM FEW005 OVC060
TEMPO 1312/1316 13014KT 6SM -RA OVC035
FM131600 13012KT 6SM -RA BKN025 OVC040
FM132100 13013KT 4SM RA BR BKN015 OVC025
FM140300 09016KT 4SM -RA BR OVC007


Example: see airport list